UAL580 KCLE-KMCO
Flight info
| Callsign | UAL580 |
|---|---|
| Flight time | 1h 54m |
| Altitude | 38000 |
| Route | CAVVS4 APE Q149 BURGG IRQ WHYYT GRNCH5 |
| Aircraft | B38M/M-SDE1FGHILORVWXY/HB1 |
Departure
| Time | 2026-04-22 18:02 |
|---|---|
| Airport | Cleveland Hopkins International Airport (KCLE) |
Arrival
| Time | 2026-04-22 19:57 |
|---|---|
| Airport | Orlando International Airport (KMCO) |
| Time | Latitude | Longitude | Altitude | Speed | Heading |
|---|---|---|---|---|---|
| 2026-04-22 17:28 | 41.40700 | -81.84113 | 768 ft | 0 kts | 317° |
| 2026-04-22 17:54 | 41.40699 | -81.84112 | 772 ft | 2 kts | 317° |
| 2026-04-22 17:54 | 41.40683 | -81.84089 | 774 ft | 4 kts | 302° |
| 2026-04-22 17:55 | 41.40675 | -81.84068 | 773 ft | 4 kts | 279° |
| 2026-04-22 17:55 | 41.40682 | -81.84040 | 774 ft | 0 kts | 208° |
| 2026-04-22 17:57 | 41.40678 | -81.84043 | 774 ft | 3 kts | 208° |
| 2026-04-22 17:57 | 41.40642 | -81.84070 | 767 ft | 11 kts | 213° |
| 2026-04-22 17:57 | 41.40610 | -81.84222 | 768 ft | 25 kts | 271° |
| 2026-04-22 17:57 | 41.40614 | -81.84475 | 768 ft | 29 kts | 272° |
| 2026-04-22 17:58 | 41.40629 | -81.84741 | 768 ft | 26 kts | 274° |
| 2026-04-22 17:58 | 41.40639 | -81.84991 | 768 ft | 27 kts | 273° |
| 2026-04-22 17:58 | 41.40649 | -81.85228 | 768 ft | 25 kts | 274° |
| 2026-04-22 17:58 | 41.40614 | -81.85431 | 768 ft | 20 kts | 234° |
| 2026-04-22 17:59 | 41.40521 | -81.85578 | 770 ft | 22 kts | 229° |
| 2026-04-22 17:59 | 41.40420 | -81.85738 | 770 ft | 24 kts | 230° |
| 2026-04-22 17:59 | 41.40308 | -81.85910 | 770 ft | 25 kts | 219° |
| 2026-04-22 17:59 | 41.40141 | -81.85982 | 770 ft | 25 kts | 216° |
| 2026-04-22 18:00 | 41.40070 | -81.86093 | 768 ft | 24 kts | 231° |
| 2026-04-22 18:00 | 41.39920 | -81.86331 | 768 ft | 26 kts | 230° |
| 2026-04-22 18:00 | 41.39798 | -81.86523 | 768 ft | 28 kts | 230° |
| 2026-04-22 18:00 | 41.39745 | -81.86680 | 768 ft | 14 kts | 319° |
| 2026-04-22 18:01 | 41.39822 | -81.86767 | 768 ft | 16 kts | 320° |
| 2026-04-22 18:01 | 41.39906 | -81.86776 | 767 ft | 12 kts | 51° |
| 2026-04-22 18:01 | 41.39915 | -81.86762 | 767 ft | 0 kts | 50° |
| 2026-04-22 18:02 | 41.39930 | -81.86737 | 767 ft | 24 kts | 50° |
| 2026-04-22 18:02 | 41.40258 | -81.86220 | 765 ft | 119 kts | 50° |
| 2026-04-22 18:02 | 41.40938 | -81.85142 | 920 ft | 179 kts | 50° |
| 2026-04-22 18:02 | 41.41795 | -81.83776 | 1698 ft | 203 kts | 46° |
| 2026-04-22 18:03 | 41.42800 | -81.82230 | 2469 ft | 242 kts | 47° |
| 2026-04-22 18:03 | 41.43778 | -81.80195 | 3189 ft | 278 kts | 69° |
| 2026-04-22 18:03 | 41.44049 | -81.77683 | 3881 ft | 274 kts | 94° |
| 2026-04-22 18:03 | 41.43569 | -81.75267 | 4626 ft | 275 kts | 119° |
| 2026-04-22 18:04 | 41.42343 | -81.73335 | 5427 ft | 277 kts | 142° |
| 2026-04-22 18:04 | 41.40869 | -81.71631 | 6199 ft | 284 kts | 137° |
| 2026-04-22 18:04 | 41.39251 | -81.70122 | 6949 ft | 287 kts | 163° |
| 2026-04-22 18:04 | 41.37301 | -81.69897 | 7682 ft | 283 kts | 194° |
| 2026-04-22 18:05 | 41.35455 | -81.70787 | 8473 ft | 285 kts | 209° |
| 2026-04-22 18:05 | 41.33629 | -81.71880 | 9257 ft | 290 kts | 207° |
| 2026-04-22 18:05 | 41.31757 | -81.72945 | 10041 ft | 294 kts | 207° |
| 2026-04-22 18:05 | 41.29812 | -81.74034 | 10751 ft | 315 kts | 207° |
| 2026-04-22 18:06 | 41.27719 | -81.75184 | 11465 ft | 336 kts | 206° |
| 2026-04-22 18:06 | 41.25486 | -81.76398 | 12205 ft | 355 kts | 206° |
| 2026-04-22 18:06 | 41.23143 | -81.77676 | 12959 ft | 372 kts | 206° |
| 2026-04-22 18:06 | 41.20708 | -81.79029 | 13735 ft | 386 kts | 209° |
| 2026-04-22 18:07 | 41.19150 | -81.80292 | 14207 ft | 390 kts | 222° |
| 2026-04-22 18:07 | 41.16523 | -81.83632 | 15150 ft | 403 kts | 227° |
| 2026-04-22 18:07 | 41.14473 | -81.86232 | 15921 ft | 412 kts | 227° |
| 2026-04-22 18:07 | 41.12376 | -81.88863 | 16816 ft | 418 kts | 227° |
| 2026-04-22 18:08 | 41.10252 | -81.91513 | 17723 ft | 422 kts | 227° |
| 2026-04-22 18:08 | 41.08104 | -81.94188 | 18618 ft | 425 kts | 227° |
| 2026-04-22 18:08 | 41.05947 | -81.96869 | 19444 ft | 427 kts | 227° |
| 2026-04-22 18:08 | 41.03775 | -81.99567 | 20305 ft | 427 kts | 227° |
| 2026-04-22 18:09 | 41.01606 | -82.02258 | 21202 ft | 426 kts | 227° |
| 2026-04-22 18:09 | 40.99452 | -82.04929 | 22129 ft | 423 kts | 227° |
| 2026-04-22 18:09 | 40.97310 | -82.07582 | 23092 ft | 419 kts | 227° |
| 2026-04-22 18:09 | 40.95053 | -82.10004 | 23988 ft | 421 kts | 215° |
| 2026-04-22 18:10 | 40.92406 | -82.11646 | 24857 ft | 417 kts | 208° |
| 2026-04-22 18:10 | 40.89842 | -82.13206 | 25755 ft | 407 kts | 210° |
| 2026-04-22 18:10 | 40.87305 | -82.14770 | 26697 ft | 396 kts | 210° |
| 2026-04-22 18:10 | 40.84841 | -82.16290 | 27559 ft | 388 kts | 211° |
| 2026-04-22 18:11 | 40.82414 | -82.17786 | 28268 ft | 382 kts | 211° |
| 2026-04-22 18:11 | 40.80031 | -82.19254 | 28995 ft | 374 kts | 211° |
| 2026-04-22 18:11 | 40.77698 | -82.20689 | 29757 ft | 365 kts | 212° |
| 2026-04-22 18:11 | 40.75426 | -82.22085 | 30465 ft | 355 kts | 212° |
| 2026-04-22 18:12 | 40.73224 | -82.23438 | 31072 ft | 345 kts | 212° |
| 2026-04-22 18:12 | 40.71036 | -82.24783 | 31270 ft | 350 kts | 212° |
| 2026-04-22 18:12 | 40.69523 | -82.25712 | 31201 ft | 360 kts | 212° |
| 2026-04-22 18:12 | 40.66428 | -82.27611 | 30995 ft | 381 kts | 212° |
| 2026-04-22 18:13 | 40.63971 | -82.29116 | 30827 ft | 398 kts | 211° |
| 2026-04-22 18:13 | 40.62285 | -82.30148 | 30755 ft | 409 kts | 211° |
| 2026-04-22 18:13 | 40.58761 | -82.32305 | 30681 ft | 427 kts | 211° |
| 2026-04-22 18:14 | 40.54167 | -82.35114 | 30621 ft | 449 kts | 210° |
| 2026-04-22 18:14 | 40.51292 | -82.36870 | 30569 ft | 463 kts | 210° |
| 2026-04-22 18:14 | 40.48333 | -82.38676 | 30517 ft | 476 kts | 210° |
| 2026-04-22 18:14 | 40.45289 | -82.40531 | 30464 ft | 489 kts | 210° |
| 2026-04-22 18:15 | 40.42155 | -82.42440 | 30413 ft | 502 kts | 210° |
| 2026-04-22 18:15 | 40.35742 | -82.46337 | 30726 ft | 503 kts | 210° |
| 2026-04-22 18:15 | 40.32601 | -82.48245 | 31472 ft | 494 kts | 210° |
| 2026-04-22 18:16 | 40.29504 | -82.50123 | 32196 ft | 487 kts | 210° |
| 2026-04-22 18:16 | 40.26454 | -82.51971 | 32946 ft | 478 kts | 210° |
| 2026-04-22 18:16 | 40.23463 | -82.53781 | 33729 ft | 469 kts | 210° |
| 2026-04-22 18:16 | 40.20534 | -82.55552 | 34470 ft | 458 kts | 210° |
| 2026-04-22 18:17 | 40.17676 | -82.57274 | 35194 ft | 447 kts | 209° |
| 2026-04-22 18:17 | 40.14745 | -82.58525 | 35840 ft | 445 kts | 193° |
| 2026-04-22 18:17 | 40.11658 | -82.58664 | 36355 ft | 443 kts | 174° |
| 2026-04-22 18:17 | 40.08646 | -82.57994 | 36897 ft | 434 kts | 174° |
| 2026-04-22 18:18 | 40.05661 | -82.57536 | 37207 ft | 430 kts | 176° |
| 2026-04-22 18:18 | 40.02704 | -82.57118 | 37519 ft | 426 kts | 176° |
| 2026-04-22 18:18 | 39.99760 | -82.56709 | 37805 ft | 422 kts | 176° |
| 2026-04-22 18:18 | 39.96859 | -82.56309 | 38078 ft | 418 kts | 176° |
| 2026-04-22 18:19 | 39.93964 | -82.55910 | 38119 ft | 420 kts | 176° |
| 2026-04-22 18:19 | 39.88073 | -82.55100 | 38077 ft | 430 kts | 176° |
| 2026-04-22 18:20 | 39.82048 | -82.54272 | 38077 ft | 440 kts | 176° |
| 2026-04-22 18:20 | 39.75883 | -82.53427 | 38078 ft | 451 kts | 176° |
| 2026-04-22 18:21 | 39.69598 | -82.52567 | 38072 ft | 463 kts | 176° |
| 2026-04-22 18:21 | 39.63112 | -82.51681 | 38068 ft | 475 kts | 176° |
| 2026-04-22 18:22 | 39.56780 | -82.50818 | 38076 ft | 484 kts | 175° |
| 2026-04-22 18:22 | 39.50001 | -82.49896 | 38079 ft | 494 kts | 175° |
| 2026-04-22 18:23 | 39.43111 | -82.48960 | 38078 ft | 501 kts | 175° |
| 2026-04-22 18:23 | 39.36168 | -82.48019 | 38089 ft | 502 kts | 175° |
| 2026-04-22 18:24 | 39.25758 | -82.46612 | 38097 ft | 502 kts | 175° |
| 2026-04-22 18:25 | 39.15335 | -82.45207 | 38099 ft | 502 kts | 175° |
| 2026-04-22 18:25 | 39.08385 | -82.44273 | 38100 ft | 501 kts | 175° |
| 2026-04-22 18:26 | 38.97978 | -82.42877 | 38113 ft | 501 kts | 175° |
| 2026-04-22 18:26 | 38.91044 | -82.41950 | 38129 ft | 501 kts | 175° |
| 2026-04-22 18:27 | 38.84101 | -82.41023 | 38139 ft | 501 kts | 175° |
| 2026-04-22 18:27 | 38.77164 | -82.40098 | 38144 ft | 501 kts | 175° |
| 2026-04-22 18:28 | 38.70226 | -82.39175 | 38151 ft | 501 kts | 175° |
| 2026-04-22 18:28 | 38.63296 | -82.38255 | 38153 ft | 501 kts | 175° |
| 2026-04-22 18:29 | 38.56363 | -82.37337 | 38154 ft | 501 kts | 175° |
| 2026-04-22 18:29 | 38.49435 | -82.36421 | 38149 ft | 500 kts | 175° |
| 2026-04-22 18:30 | 38.39051 | -82.35052 | 38154 ft | 500 kts | 175° |
| 2026-04-22 18:31 | 38.32129 | -82.34141 | 38151 ft | 499 kts | 175° |
| 2026-04-22 18:31 | 38.25223 | -82.33233 | 38156 ft | 498 kts | 175° |
| 2026-04-22 18:32 | 38.18325 | -82.32329 | 38159 ft | 498 kts | 175° |
| 2026-04-22 18:32 | 38.11446 | -82.31427 | 38161 ft | 497 kts | 175° |
| 2026-04-22 18:33 | 38.04572 | -82.30529 | 38160 ft | 496 kts | 175° |
| 2026-04-22 18:33 | 37.97708 | -82.29632 | 38166 ft | 496 kts | 175° |
| 2026-04-22 18:34 | 37.90901 | -82.28745 | 38162 ft | 495 kts | 175° |
| 2026-04-22 18:34 | 37.84051 | -82.27854 | 38163 ft | 494 kts | 175° |
| 2026-04-22 18:35 | 37.77209 | -82.26966 | 38174 ft | 494 kts | 175° |
| 2026-04-22 18:35 | 37.70376 | -82.26080 | 38156 ft | 493 kts | 175° |
| 2026-04-22 18:36 | 37.63551 | -82.25197 | 38160 ft | 493 kts | 175° |
| 2026-04-22 18:36 | 37.56735 | -82.24317 | 38171 ft | 492 kts | 175° |
| 2026-04-22 18:37 | 37.49927 | -82.23439 | 38158 ft | 492 kts | 175° |
| 2026-04-22 18:37 | 37.44261 | -82.22710 | 38169 ft | 492 kts | 175° |
| 2026-04-22 18:38 | 37.36315 | -82.21690 | 38158 ft | 491 kts | 175° |
| 2026-04-22 18:38 | 37.29521 | -82.20819 | 38158 ft | 491 kts | 175° |
| 2026-04-22 18:39 | 37.19353 | -82.19519 | 38161 ft | 490 kts | 175° |
| 2026-04-22 18:39 | 37.12568 | -82.18653 | 38159 ft | 490 kts | 175° |
| 2026-04-22 18:40 | 37.05784 | -82.17789 | 38177 ft | 489 kts | 175° |
| 2026-04-22 18:40 | 36.99016 | -82.16929 | 38181 ft | 489 kts | 175° |
| 2026-04-22 18:41 | 36.92243 | -82.16069 | 38183 ft | 489 kts | 175° |
| 2026-04-22 18:41 | 36.85475 | -82.15212 | 38196 ft | 489 kts | 175° |
| 2026-04-22 18:42 | 36.78709 | -82.14356 | 38205 ft | 489 kts | 175° |
| 2026-04-22 18:42 | 36.71948 | -82.13503 | 38213 ft | 488 kts | 175° |
| 2026-04-22 18:43 | 36.65192 | -82.12651 | 38209 ft | 488 kts | 175° |
| 2026-04-22 18:43 | 36.58439 | -82.11801 | 38208 ft | 488 kts | 175° |
| 2026-04-22 18:44 | 36.51690 | -82.10954 | 38198 ft | 488 kts | 175° |
| 2026-04-22 18:44 | 36.44985 | -82.10113 | 38198 ft | 487 kts | 175° |
| 2026-04-22 18:45 | 36.38247 | -82.09270 | 38199 ft | 486 kts | 175° |
| 2026-04-22 18:45 | 36.31535 | -82.08432 | 38183 ft | 485 kts | 175° |
| 2026-04-22 18:46 | 36.24841 | -82.07597 | 38182 ft | 484 kts | 175° |
| 2026-04-22 18:46 | 36.18134 | -82.06762 | 38183 ft | 483 kts | 175° |
| 2026-04-22 18:47 | 36.11437 | -82.05930 | 38183 ft | 483 kts | 175° |
| 2026-04-22 18:47 | 36.04753 | -82.05100 | 38177 ft | 483 kts | 176° |
| 2026-04-22 18:48 | 35.98062 | -82.04272 | 38183 ft | 483 kts | 175° |
| 2026-04-22 18:48 | 35.91379 | -82.03446 | 38174 ft | 483 kts | 175° |
| 2026-04-22 18:49 | 35.84690 | -82.02620 | 38166 ft | 482 kts | 175° |
| 2026-04-22 18:49 | 35.78012 | -82.01797 | 38179 ft | 482 kts | 175° |
| 2026-04-22 18:50 | 35.71380 | -82.00982 | 38171 ft | 483 kts | 176° |
| 2026-04-22 18:50 | 35.64702 | -82.00162 | 38172 ft | 482 kts | 176° |
| 2026-04-22 18:51 | 35.58025 | -81.99343 | 38176 ft | 482 kts | 176° |
| 2026-04-22 18:51 | 35.51355 | -81.98526 | 38183 ft | 482 kts | 176° |
| 2026-04-22 18:52 | 35.44691 | -81.97712 | 38181 ft | 481 kts | 176° |
| 2026-04-22 18:52 | 35.38038 | -81.96901 | 38183 ft | 481 kts | 176° |
| 2026-04-22 18:53 | 35.31382 | -81.96090 | 38178 ft | 480 kts | 176° |
| 2026-04-22 18:53 | 35.24744 | -81.95283 | 38170 ft | 479 kts | 176° |
| 2026-04-22 18:54 | 35.18113 | -81.94478 | 38175 ft | 479 kts | 176° |
| 2026-04-22 18:54 | 35.11483 | -81.93674 | 38187 ft | 478 kts | 176° |
| 2026-04-22 18:55 | 35.04865 | -81.92876 | 38187 ft | 478 kts | 177° |
| 2026-04-22 18:55 | 35.01563 | -81.92959 | 38186 ft | 471 kts | 192° |
| 2026-04-22 18:55 | 34.98321 | -81.93620 | 38179 ft | 473 kts | 191° |
| 2026-04-22 18:56 | 34.91807 | -81.94769 | 38194 ft | 473 kts | 191° |
| 2026-04-22 18:56 | 34.85298 | -81.95936 | 38192 ft | 473 kts | 191° |
| 2026-04-22 18:57 | 34.78825 | -81.97097 | 38191 ft | 473 kts | 191° |
| 2026-04-22 18:57 | 34.72317 | -81.98262 | 38199 ft | 473 kts | 191° |
| 2026-04-22 18:58 | 34.65806 | -81.99424 | 38209 ft | 473 kts | 191° |
| 2026-04-22 18:58 | 34.59299 | -82.00586 | 38208 ft | 473 kts | 191° |
| 2026-04-22 18:59 | 34.52794 | -82.01745 | 38208 ft | 473 kts | 191° |
| 2026-04-22 18:59 | 34.46279 | -82.02903 | 38208 ft | 473 kts | 191° |
| 2026-04-22 19:00 | 34.39760 | -82.04060 | 38212 ft | 473 kts | 191° |
| 2026-04-22 19:00 | 34.33253 | -82.05214 | 38237 ft | 473 kts | 191° |
| 2026-04-22 19:01 | 34.26729 | -82.06369 | 38237 ft | 474 kts | 191° |
| 2026-04-22 19:01 | 34.20208 | -82.07521 | 38208 ft | 473 kts | 191° |
| 2026-04-22 19:02 | 34.14785 | -82.08478 | 38213 ft | 473 kts | 191° |
| 2026-04-22 19:02 | 34.08263 | -82.09627 | 38219 ft | 473 kts | 191° |
| 2026-04-22 19:03 | 34.01749 | -82.10774 | 38216 ft | 473 kts | 191° |
| 2026-04-22 19:03 | 33.95230 | -82.11919 | 38227 ft | 473 kts | 191° |
| 2026-04-22 19:04 | 33.88727 | -82.13060 | 38226 ft | 473 kts | 191° |
| 2026-04-22 19:04 | 33.82222 | -82.14199 | 38223 ft | 472 kts | 191° |
| 2026-04-22 19:05 | 33.75716 | -82.15337 | 38225 ft | 472 kts | 191° |
| 2026-04-22 19:05 | 33.69192 | -82.16180 | 38215 ft | 474 kts | 178° |
| 2026-04-22 19:06 | 33.62591 | -82.15736 | 38226 ft | 475 kts | 179° |
| 2026-04-22 19:07 | 33.52679 | -82.15176 | 38220 ft | 475 kts | 179° |
| 2026-04-22 19:07 | 33.46072 | -82.14801 | 38218 ft | 475 kts | 179° |
| 2026-04-22 19:08 | 33.39461 | -82.14425 | 38218 ft | 475 kts | 179° |
| 2026-04-22 19:08 | 33.32861 | -82.14051 | 38198 ft | 475 kts | 179° |
| 2026-04-22 19:09 | 33.26267 | -82.13677 | 38202 ft | 474 kts | 179° |
| 2026-04-22 19:09 | 33.19679 | -82.13305 | 38206 ft | 474 kts | 179° |
| 2026-04-22 19:10 | 33.13095 | -82.12934 | 38216 ft | 473 kts | 180° |
| 2026-04-22 19:10 | 33.06516 | -82.12563 | 38225 ft | 473 kts | 180° |
| 2026-04-22 19:11 | 32.99947 | -82.12193 | 38229 ft | 472 kts | 180° |
| 2026-04-22 19:11 | 32.93388 | -82.11824 | 38232 ft | 472 kts | 180° |
| 2026-04-22 19:12 | 32.86841 | -82.11457 | 38237 ft | 471 kts | 180° |
| 2026-04-22 19:12 | 32.80298 | -82.11090 | 38248 ft | 471 kts | 180° |
| 2026-04-22 19:13 | 32.73755 | -82.10724 | 38243 ft | 470 kts | 180° |
| 2026-04-22 19:13 | 32.67225 | -82.10360 | 38236 ft | 470 kts | 180° |
| 2026-04-22 19:14 | 32.60686 | -82.09995 | 38240 ft | 470 kts | 180° |
| 2026-04-22 19:14 | 32.54226 | -82.09635 | 38257 ft | 470 kts | 180° |
| 2026-04-22 19:15 | 32.48751 | -82.09330 | 38241 ft | 469 kts | 180° |
| 2026-04-22 19:15 | 32.41121 | -82.08906 | 38232 ft | 469 kts | 180° |
| 2026-04-22 19:16 | 32.34661 | -82.08548 | 38237 ft | 469 kts | 180° |
| 2026-04-22 19:16 | 32.28097 | -82.08185 | 38231 ft | 468 kts | 181° |
| 2026-04-22 19:17 | 32.21585 | -82.07824 | 38242 ft | 468 kts | 181° |
| 2026-04-22 19:17 | 32.15086 | -82.07465 | 38246 ft | 467 kts | 181° |
| 2026-04-22 19:18 | 32.08595 | -82.07108 | 38247 ft | 467 kts | 181° |
| 2026-04-22 19:18 | 32.02144 | -82.06752 | 38248 ft | 467 kts | 181° |
| 2026-04-22 19:19 | 31.95662 | -82.06396 | 38246 ft | 466 kts | 181° |
| 2026-04-22 19:19 | 31.89181 | -82.06040 | 38249 ft | 466 kts | 181° |
| 2026-04-22 19:20 | 31.82713 | -82.05685 | 38251 ft | 465 kts | 181° |
| 2026-04-22 19:20 | 31.76252 | -82.05332 | 38260 ft | 465 kts | 182° |
| 2026-04-22 19:21 | 31.69796 | -82.04978 | 38267 ft | 464 kts | 182° |
| 2026-04-22 19:21 | 31.63339 | -82.04626 | 38269 ft | 464 kts | 182° |
| 2026-04-22 19:22 | 31.56891 | -82.04274 | 38271 ft | 464 kts | 182° |
| 2026-04-22 19:22 | 31.50445 | -82.03923 | 38268 ft | 463 kts | 182° |
| 2026-04-22 19:23 | 31.44011 | -82.03573 | 38287 ft | 463 kts | 182° |
| 2026-04-22 19:23 | 31.37576 | -82.03224 | 38259 ft | 462 kts | 183° |
| 2026-04-22 19:24 | 31.31144 | -82.02875 | 38262 ft | 463 kts | 183° |
| 2026-04-22 19:24 | 31.24704 | -82.02526 | 38250 ft | 463 kts | 183° |
| 2026-04-22 19:25 | 31.18283 | -82.02179 | 38245 ft | 462 kts | 183° |
| 2026-04-22 19:25 | 31.11856 | -82.01832 | 38248 ft | 462 kts | 184° |
| 2026-04-22 19:26 | 31.05441 | -82.01486 | 38247 ft | 461 kts | 184° |
| 2026-04-22 19:26 | 30.99028 | -82.01140 | 38250 ft | 461 kts | 184° |
| 2026-04-22 19:27 | 30.92618 | -82.00796 | 38257 ft | 461 kts | 184° |
| 2026-04-22 19:27 | 30.86222 | -82.00452 | 38261 ft | 460 kts | 184° |
| 2026-04-22 19:28 | 30.79816 | -82.00108 | 38265 ft | 460 kts | 184° |
| 2026-04-22 19:28 | 30.73420 | -81.99766 | 38271 ft | 460 kts | 184° |
| 2026-04-22 19:29 | 30.67029 | -81.99423 | 38277 ft | 460 kts | 184° |
| 2026-04-22 19:29 | 30.60644 | -81.99082 | 38286 ft | 460 kts | 184° |
| 2026-04-22 19:30 | 30.55335 | -81.98799 | 38294 ft | 459 kts | 184° |
| 2026-04-22 19:30 | 30.47911 | -81.98404 | 38286 ft | 459 kts | 184° |
| 2026-04-22 19:31 | 30.41538 | -81.98064 | 38265 ft | 459 kts | 184° |
| 2026-04-22 19:31 | 30.35154 | -81.97725 | 38256 ft | 459 kts | 184° |
| 2026-04-22 19:32 | 30.28776 | -81.97386 | 38264 ft | 459 kts | 185° |
| 2026-04-22 19:32 | 30.22406 | -81.97048 | 38256 ft | 459 kts | 185° |
| 2026-04-22 19:33 | 30.16020 | -81.96710 | 38259 ft | 459 kts | 185° |
| 2026-04-22 19:33 | 30.09646 | -81.96373 | 37491 ft | 456 kts | 185° |
| 2026-04-22 19:33 | 30.06481 | -81.96206 | 36748 ft | 455 kts | 185° |
| 2026-04-22 19:34 | 30.03316 | -81.96039 | 36016 ft | 456 kts | 185° |
| 2026-04-22 19:34 | 30.00135 | -81.95871 | 35314 ft | 458 kts | 185° |
| 2026-04-22 19:34 | 29.96947 | -81.95703 | 34628 ft | 460 kts | 185° |
| 2026-04-22 19:34 | 29.93743 | -81.95534 | 33910 ft | 461 kts | 185° |
| 2026-04-22 19:35 | 29.90533 | -81.95364 | 33137 ft | 463 kts | 184° |
| 2026-04-22 19:35 | 29.87350 | -81.95197 | 32411 ft | 465 kts | 184° |
| 2026-04-22 19:35 | 29.85166 | -81.95082 | 31918 ft | 466 kts | 184° |
| 2026-04-22 19:35 | 29.80870 | -81.94856 | 30991 ft | 468 kts | 184° |
| 2026-04-22 19:36 | 29.77618 | -81.94686 | 30299 ft | 469 kts | 184° |
| 2026-04-22 19:36 | 29.74349 | -81.94514 | 29505 ft | 471 kts | 183° |
| 2026-04-22 19:36 | 29.71066 | -81.94342 | 28751 ft | 474 kts | 183° |
| 2026-04-22 19:36 | 29.67766 | -81.94169 | 28063 ft | 476 kts | 183° |
| 2026-04-22 19:37 | 29.64449 | -81.93995 | 27401 ft | 478 kts | 183° |
| 2026-04-22 19:37 | 29.61118 | -81.93820 | 26747 ft | 480 kts | 182° |
| 2026-04-22 19:37 | 29.57778 | -81.93646 | 26111 ft | 481 kts | 182° |
| 2026-04-22 19:37 | 29.54436 | -81.93471 | 25506 ft | 479 kts | 182° |
| 2026-04-22 19:38 | 29.51122 | -81.93298 | 24915 ft | 476 kts | 182° |
| 2026-04-22 19:38 | 29.47822 | -81.93126 | 24337 ft | 473 kts | 182° |
| 2026-04-22 19:38 | 29.44576 | -81.92956 | 23769 ft | 459 kts | 182° |
| 2026-04-22 19:38 | 29.41460 | -81.92793 | 23177 ft | 438 kts | 182° |
| 2026-04-22 19:39 | 29.38480 | -81.92638 | 22566 ft | 423 kts | 182° |
| 2026-04-22 19:39 | 29.35544 | -81.92486 | 21916 ft | 420 kts | 182° |
| 2026-04-22 19:39 | 29.32643 | -81.92334 | 21280 ft | 415 kts | 182° |
| 2026-04-22 19:39 | 29.29772 | -81.92185 | 20655 ft | 411 kts | 182° |
| 2026-04-22 19:40 | 29.26934 | -81.92038 | 20052 ft | 407 kts | 182° |
| 2026-04-22 19:40 | 29.24107 | -81.91891 | 19450 ft | 406 kts | 182° |
| 2026-04-22 19:40 | 29.21285 | -81.91744 | 18865 ft | 405 kts | 181° |
| 2026-04-22 19:40 | 29.18478 | -81.91598 | 18251 ft | 402 kts | 181° |
| 2026-04-22 19:41 | 29.15692 | -81.91453 | 17590 ft | 400 kts | 181° |
| 2026-04-22 19:41 | 29.12927 | -81.91310 | 16955 ft | 397 kts | 181° |
| 2026-04-22 19:41 | 29.10177 | -81.91167 | 16376 ft | 392 kts | 180° |
| 2026-04-22 19:41 | 29.07525 | -81.90718 | 16309 ft | 384 kts | 166° |
| 2026-04-22 19:42 | 29.05105 | -81.89405 | 15697 ft | 391 kts | 147° |
| 2026-04-22 19:42 | 29.03127 | -81.87273 | 15194 ft | 389 kts | 134° |
| 2026-04-22 19:42 | 29.01243 | -81.85070 | 14583 ft | 385 kts | 137° |
| 2026-04-22 19:42 | 28.99371 | -81.82983 | 14034 ft | 368 kts | 138° |
| 2026-04-22 19:43 | 28.96206 | -81.78670 | 12799 ft | 343 kts | 128° |
| 2026-04-22 19:43 | 28.94794 | -81.76524 | 12184 ft | 333 kts | 129° |
| 2026-04-22 19:43 | 28.93423 | -81.74479 | 11589 ft | 324 kts | 129° |
| 2026-04-22 19:44 | 28.92063 | -81.72473 | 11087 ft | 314 kts | 129° |
| 2026-04-22 19:44 | 28.90747 | -81.70546 | 10621 ft | 303 kts | 129° |
| 2026-04-22 19:44 | 28.89472 | -81.68685 | 10169 ft | 293 kts | 129° |
| 2026-04-22 19:44 | 28.88229 | -81.66877 | 9668 ft | 285 kts | 128° |
| 2026-04-22 19:45 | 28.87031 | -81.65109 | 9169 ft | 278 kts | 128° |
| 2026-04-22 19:45 | 28.85868 | -81.63387 | 8673 ft | 271 kts | 128° |
| 2026-04-22 19:45 | 28.84725 | -81.61697 | 8187 ft | 265 kts | 128° |
| 2026-04-22 19:45 | 28.83610 | -81.60048 | 7713 ft | 260 kts | 127° |
| 2026-04-22 19:46 | 28.82513 | -81.58427 | 7240 ft | 256 kts | 127° |
| 2026-04-22 19:46 | 28.81448 | -81.56854 | 7025 ft | 243 kts | 127° |
| 2026-04-22 19:46 | 28.80408 | -81.55317 | 6730 ft | 247 kts | 127° |
| 2026-04-22 19:46 | 28.79359 | -81.53766 | 6337 ft | 244 kts | 126° |
| 2026-04-22 19:47 | 28.78433 | -81.52165 | 6018 ft | 240 kts | 122° |
| 2026-04-22 19:47 | 28.77535 | -81.50562 | 5995 ft | 241 kts | 122° |
| 2026-04-22 19:47 | 28.76935 | -81.49498 | 5985 ft | 241 kts | 122° |
| 2026-04-22 19:47 | 28.75715 | -81.47347 | 5976 ft | 242 kts | 122° |
| 2026-04-22 19:48 | 28.75110 | -81.46285 | 5984 ft | 241 kts | 122° |
| 2026-04-22 19:48 | 28.73882 | -81.44132 | 5678 ft | 243 kts | 122° |
| 2026-04-22 19:48 | 28.73179 | -81.43143 | 5477 ft | 242 kts | 136° |
| 2026-04-22 19:48 | 28.71767 | -81.42124 | 5208 ft | 237 kts | 153° |
| 2026-04-22 19:49 | 28.70344 | -81.41320 | 4986 ft | 221 kts | 144° |
| 2026-04-22 19:49 | 28.69130 | -81.40326 | 4706 ft | 210 kts | 141° |
| 2026-04-22 19:49 | 28.67965 | -81.39367 | 4404 ft | 205 kts | 142° |
| 2026-04-22 19:49 | 28.66805 | -81.38424 | 4062 ft | 206 kts | 142° |
| 2026-04-22 19:50 | 28.65623 | -81.37473 | 3709 ft | 209 kts | 142° |
| 2026-04-22 19:50 | 28.64429 | -81.36519 | 3368 ft | 211 kts | 142° |
| 2026-04-22 19:50 | 28.63218 | -81.35555 | 3057 ft | 211 kts | 142° |
| 2026-04-22 19:50 | 28.62049 | -81.34628 | 3013 ft | 200 kts | 143° |
| 2026-04-22 19:51 | 28.60916 | -81.33733 | 2993 ft | 198 kts | 142° |
| 2026-04-22 19:51 | 28.59647 | -81.33085 | 2811 ft | 205 kts | 163° |
| 2026-04-22 19:51 | 28.58206 | -81.32849 | 2364 ft | 199 kts | 172° |
| 2026-04-22 19:51 | 28.56956 | -81.32809 | 2289 ft | 163 kts | 174° |
| 2026-04-22 19:52 | 28.55909 | -81.32803 | 2156 ft | 139 kts | 174° |
| 2026-04-22 19:52 | 28.54967 | -81.32793 | 2029 ft | 136 kts | 172° |
| 2026-04-22 19:52 | 28.54019 | -81.32781 | 1876 ft | 137 kts | 174° |
| 2026-04-22 19:52 | 28.53076 | -81.32772 | 1709 ft | 134 kts | 174° |
| 2026-04-22 19:53 | 28.52566 | -81.32770 | 1620 ft | 133 kts | 172° |
| 2026-04-22 19:54 | 28.51904 | -81.32764 | 1488 ft | 135 kts | 171° |
| 2026-04-22 19:55 | 28.50954 | -81.32751 | 1341 ft | 137 kts | 175° |
| 2026-04-22 19:55 | 28.50005 | -81.32771 | 1105 ft | 138 kts | 175° |
| 2026-04-22 19:55 | 28.49052 | -81.32754 | 976 ft | 137 kts | 172° |
| 2026-04-22 19:55 | 28.48079 | -81.32747 | 806 ft | 142 kts | 174° |
| 2026-04-22 19:56 | 28.47113 | -81.32728 | 616 ft | 134 kts | 173° |
| 2026-04-22 19:56 | 28.46189 | -81.32722 | 412 ft | 132 kts | 173° |
| 2026-04-22 19:56 | 28.45271 | -81.32709 | 233 ft | 132 kts | 174° |
| 2026-04-22 19:56 | 28.44350 | -81.32698 | 107 ft | 127 kts | 174° |
| 2026-04-22 19:57 | 28.43632 | -81.32683 | 102 ft | 69 kts | 178° |
| 2026-04-22 19:57 | 28.43307 | -81.32677 | 104 ft | 44 kts | 177° |
| 2026-04-22 19:57 | 28.43070 | -81.32580 | 101 ft | 27 kts | 111° |
| 2026-04-22 19:57 | 28.43058 | -81.32406 | 101 ft | 21 kts | 90° |
| 2026-04-22 19:58 | 28.43058 | -81.32244 | 100 ft | 20 kts | 90° |
| 2026-04-22 19:58 | 28.43060 | -81.32088 | 102 ft | 13 kts | 89° |
| 2026-04-22 19:58 | 28.43060 | -81.32050 | 103 ft | 4 kts | 89° |
| 2026-04-22 19:58 | 28.43061 | -81.32004 | 101 ft | 8 kts | 89° |
| 2026-04-22 19:59 | 28.43052 | -81.31934 | 100 ft | 12 kts | 122° |
| 2026-04-22 20:00 | 28.42845 | -81.31461 | 97 ft | 0 kts | 229° |